Terminal Aerodrome Forecast
Issued by NWS Jackson, MS

Home | Current Version | Previous Version | Text Only | Print | Product List | Glossary On
Versions: 1 2 3 4 5 6 7 8 9 10 11 12
000
FTUS44 KMEG 231700
TAFTUP
TAF
KTUP 231721Z 2318/2418 25005KT P6SM SCT050
     FM240100 00000KT P6SM SKC
     FM241600 VRB03KT P6SM SCT030 SCT150=

USA.gov is the U.S. government's official web portal to all federal, state and local government web resources and services.